sensor_id;sensor_type;location;lat;lon;timestamp;P1;P2;P0
51052;PMS5003;37093;37.716;-122.060;2023-12-28T08:01:12;19;19;
51052;PMS5003;37093;37.716;-122.060;2023-12-28T08:03:41;26;23;
51052;PMS5003;37093;37.716;-122.060;2023-12-28T08:06:10;29;26;
51052;PMS5003;37093;37.716;-122.060;2023-12-28T08:08:38;31;25;
51052;PMS5003;37093;37.716;-122.060;2023-12-28T08:11:07;33;26;
51052;PMS5003;37093;37.716;-122.060;2023-12-28T08:13:35;32;25;
51052;PMS5003;37093;37.716;-122.060;2023-12-28T08:16:03;38;29;
51052;PMS5003;37093;37.716;-122.060;2023-12-28T08:18:32;39;27;
51052;PMS5003;37093;37.716;-122.060;2023-12-28T08:21:00;33;27;
51052;PMS5003;37093;37.716;-122.060;2023-12-28T08:23:28;29;26;
51052;PMS5003;37093;37.716;-122.060;2023-12-28T08:25:56;32;25;
51052;PMS5003;37093;37.716;-122.060;2023-12-28T08:28:24;41;29;
51052;PMS5003;37093;37.716;-122.060;2023-12-28T08:30:52;39;29;
51052;PMS5003;37093;37.716;-122.060;2023-12-28T08:33:21;30;24;
51052;PMS5003;37093;37.716;-122.060;2023-12-28T08:35:49;27;23;
51052;PMS5003;37093;37.716;-122.060;2023-12-28T08:38:18;38;26;
51052;PMS5003;37093;37.716;-122.060;2023-12-28T08:40:46;35;24;
51052;PMS5003;37093;37.716;-122.060;2023-12-28T08:43:14;39;26;
51052;PMS5003;37093;37.716;-122.060;2023-12-28T08:45:42;29;24;
51052;PMS5003;37093;37.716;-122.060;2023-12-28T08:48:10;28;21;
51052;PMS5003;37093;37.716;-122.060;2023-12-28T08:50:38;34;19;
51052;PMS5003;37093;37.716;-122.060;2023-12-28T08:53:06;18;13;
51052;PMS5003;37093;37.716;-122.060;2023-12-28T08:55:35;19;19;
51052;PMS5003;37093;37.716;-122.060;2023-12-28T08:58:03;33;16;
51052;PMS5003;37093;37.716;-122.060;2023-12-28T09:00:32;17;16;
51052;PMS5003;37093;37.716;-122.060;2023-12-28T09:03:00;27;14;
51052;PMS5003;37093;37.716;-122.060;2023-12-28T09:05:28;13;10;
51052;PMS5003;37093;37.716;-122.060;2023-12-28T09:07:57;14;10;
51052;PMS5003;37093;37.716;-122.060;2023-12-28T09:10:25;17;15;
51052;PMS5003;37093;37.716;-122.060;2023-12-28T09:12:53;10;9;
51052;PMS5003;37093;37.716;-122.060;2023-12-28T09:15:21;26;15;
51052;PMS5003;37093;37.716;-122.060;2023-12-28T09:17:50;18;13;
51052;PMS5003;37093;37.716;-122.060;2023-12-28T09:20:18;13;10;
51052;PMS5003;37093;37.716;-122.060;2023-12-28T09:22:47;13;10;
51052;PMS5003;37093;37.716;-122.060;2023-12-28T09:25:15;11;9;
51052;PMS5003;37093;37.716;-122.060;2023-12-28T09:27:43;13;12;
51052;PMS5003;37093;37.716;-122.060;2023-12-28T09:30:11;12;10;
51052;PMS5003;37093;37.716;-122.060;2023-12-28T09:32:40;12;10;
51052;PMS5003;37093;37.716;-122.060;2023-12-28T09:35:08;17;12;
51052;PMS5003;37093;37.716;-122.060;2023-12-28T09:37:37;15;11;
51052;PMS5003;37093;37.716;-122.060;2023-12-28T09:40:06;13;12;
51052;PMS5003;37093;37.716;-122.060;2023-12-28T09:42:37;15;14;
51052;PMS5003;37093;37.716;-122.060;2023-12-28T09:45:12;19;14;
51052;PMS5003;37093;37.716;-122.060;2023-12-28T09:47:41;23;13;
51052;PMS5003;37093;37.716;-122.060;2023-12-28T09:50:09;13;13;
51052;PMS5003;37093;37.716;-122.060;2023-12-28T09:52:39;9;7;
51052;PMS5003;37093;37.716;-122.060;2023-12-28T09:55:09;11;10;
51052;PMS5003;37093;37.716;-122.060;2023-12-28T09:57:37;11;10;
51052;PMS5003;37093;37.716;-122.060;2023-12-28T10:00:06;12;11;
51052;PMS5003;37093;37.716;-122.060;2023-12-28T10:02:34;15;12;
51052;PMS5003;37093;37.716;-122.060;2023-12-28T10:05:05;14;10;
51052;PMS5003;37093;37.716;-122.060;2023-12-28T10:07:40;8;8;
51052;PMS5003;37093;37.716;-122.060;2023-12-28T10:10:10;8;8;
51052;PMS5003;37093;37.716;-122.060;2023-12-28T10:12:38;13;11;
51052;PMS5003;37093;37.716;-122.060;2023-12-28T10:15:07;11;10;
51052;PMS5003;37093;37.716;-122.060;2023-12-28T10:17:35;12;11;
51052;PMS5003;37093;37.716;-122.060;2023-12-28T10:20:04;13;10;
51052;PMS5003;37093;37.716;-122.060;2023-12-28T10:22:33;16;12;
51052;PMS5003;37093;37.716;-122.060;2023-12-28T10:25:02;13;11;
51052;PMS5003;37093;37.716;-122.060;2023-12-28T10:27:30;19;9;
51052;PMS5003;37093;37.716;-122.060;2023-12-28T10:29:58;11;9;
51052;PMS5003;37093;37.716;-122.060;2023-12-28T10:32:27;10;8;
51052;PMS5003;37093;37.716;-122.060;2023-12-28T10:34:55;14;9;
51052;PMS5003;37093;37.716;-122.060;2023-12-28T10:37:24;11;9;
51052;PMS5003;37093;37.716;-122.060;2023-12-28T10:39:54;7;7;
51052;PMS5003;37093;37.716;-122.060;2023-12-28T10:42:26;10;9;
51052;PMS5003;37093;37.716;-122.060;2023-12-28T10:45:02;10;7;
51052;PMS5003;37093;37.716;-122.060;2023-12-28T10:47:32;12;11;
51052;PMS5003;37093;37.716;-122.060;2023-12-28T10:50:04;8;7;
51052;PMS5003;37093;37.716;-122.060;2023-12-28T10:52:35;12;8;
51052;PMS5003;37093;37.716;-122.060;2023-12-28T10:55:13;19;7;
51052;PMS5003;37093;37.716;-122.060;2023-12-28T10:57:52;6;6;
51052;PMS5003;37093;37.716;-122.060;2023-12-28T11:00:26;9;9;
51052;PMS5003;37093;37.716;-122.060;2023-12-28T11:02:58;7;7;
51052;PMS5003;37093;37.716;-122.060;2023-12-28T11:05:31;8;7;
51052;PMS5003;37093;37.716;-122.060;2023-12-28T11:08:00;7;7;
51052;PMS5003;37093;37.716;-122.060;2023-12-28T11:10:29;7;7;
51052;PMS5003;37093;37.716;-122.060;2023-12-28T11:12:59;7;6;
51052;PMS5003;37093;37.716;-122.060;2023-12-28T11:15:27;6;6;
51052;PMS5003;37093;37.716;-122.060;2023-12-28T11:17:56;19;6;
51052;PMS5003;37093;37.716;-122.060;2023-12-28T11:20:25;4;4;
51052;PMS5003;37093;37.716;-122.060;2023-12-28T11:22:53;7;7;
51052;PMS5003;37093;37.716;-122.060;2023-12-28T11:25:22;6;6;
51052;PMS5003;37093;37.716;-122.060;2023-12-28T11:27:57;7;6;
51052;PMS5003;37093;37.716;-122.060;2023-12-28T11:30:26;8;6;
51052;PMS5003;37093;37.716;-122.060;2023-12-28T11:32:56;15;6;
51052;PMS5003;37093;37.716;-122.060;2023-12-28T11:35:24;7;5;
51052;PMS5003;37093;37.716;-122.060;2023-12-28T11:38:01;7;6;
51052;PMS5003;37093;37.716;-122.060;2023-12-28T11:40:33;5;5;
51052;PMS5003;37093;37.716;-122.060;2023-12-28T11:43:14;5;5;
51052;PMS5003;37093;37.716;-122.060;2023-12-28T11:45:47;4;4;
51052;PMS5003;37093;37.716;-122.060;2023-12-28T11:48:25;5;4;
51052;PMS5003;37093;37.716;-122.060;2023-12-28T11:50:55;4;4;
51052;PMS5003;37093;37.716;-122.060;2023-12-28T11:53:24;5;5;
51052;PMS5003;37093;37.716;-122.060;2023-12-28T11:55:58;7;5;
51052;PMS5003;37093;37.716;-122.060;2023-12-28T11:58:27;3;2;
51052;PMS5003;37093;37.716;-122.060;2023-12-28T12:00:56;2;2;
51052;PMS5003;37093;37.716;-122.060;2023-12-28T12:03:25;3;1;
51052;PMS5003;37093;37.716;-122.060;2023-12-28T12:05:55;4;4;
51052;PMS5003;37093;37.716;-122.060;2023-12-28T12:08:23;2;2;
51052;PMS5003;37093;37.716;-122.060;2023-12-28T12:10:59;4;3;
51052;PMS5003;37093;37.716;-122.060;2023-12-28T12:13:28;4;3;
51052;PMS5003;37093;37.716;-122.060;2023-12-28T12:15:56;4;4;
51052;PMS5003;37093;37.716;-122.060;2023-12-28T12:18:25;3;3;
51052;PMS5003;37093;37.716;-122.060;2023-12-28T12:20:53;5;4;
51052;PMS5003;37093;37.716;-122.060;2023-12-28T12:23:22;2;2;
51052;PMS5003;37093;37.716;-122.060;2023-12-28T12:25:51;4;3;
51052;PMS5003;37093;37.716;-122.060;2023-12-28T12:28:20;4;4;
51052;PMS5003;37093;37.716;-122.060;2023-12-28T12:30:50;5;4;
51052;PMS5003;37093;37.716;-122.060;2023-12-28T12:33:20;4;4;
51052;PMS5003;37093;37.716;-122.060;2023-12-28T12:35:50;2;2;
51052;PMS5003;37093;37.716;-122.060;2023-12-28T12:38:18;3;2;
51052;PMS5003;37093;37.716;-122.060;2023-12-28T12:40:47;4;3;
51052;PMS5003;37093;37.716;-122.060;2023-12-28T12:43:18;1;1;
51052;PMS5003;37093;37.716;-122.060;2023-12-28T12:45:46;2;2;
51052;PMS5003;37093;37.716;-122.060;2023-12-28T12:48:15;1;1;
51052;PMS5003;37093;37.716;-122.060;2023-12-28T12:50:43;2;2;
51052;PMS5003;37093;37.716;-122.060;2023-12-28T12:53:12;1;1;
51052;PMS5003;37093;37.716;-122.060;2023-12-28T12:55:41;2;2;
51052;PMS5003;37093;37.716;-122.060;2023-12-28T12:58:10;2;2;
51052;PMS5003;37093;37.716;-122.060;2023-12-28T13:00:38;0;0;
51052;PMS5003;37093;37.716;-122.060;2023-12-28T13:03:07;2;2;
51052;PMS5003;37093;37.716;-122.060;2023-12-28T13:05:35;1;1;
51052;PMS5003;37093;37.716;-122.060;2023-12-28T13:08:04;0;0;
51052;PMS5003;37093;37.716;-122.060;2023-12-28T13:10:33;1;1;
51052;PMS5003;37093;37.716;-122.060;2023-12-28T13:13:02;1;1;
51052;PMS5003;37093;37.716;-122.060;2023-12-28T13:15:35;2;2;
51052;PMS5003;37093;37.716;-122.060;2023-12-28T13:18:03;3;1;
51052;PMS5003;37093;37.716;-122.060;2023-12-28T13:20:31;1;1;
51052;PMS5003;37093;37.716;-122.060;2023-12-28T13:23:00;1;1;
51052;PMS5003;37093;37.716;-122.060;2023-12-28T13:25:28;1;1;
51052;PMS5003;37093;37.716;-122.060;2023-12-28T13:27:57;3;0;
51052;PMS5003;37093;37.716;-122.060;2023-12-28T13:30:26;3;2;
51052;PMS5003;37093;37.716;-122.060;2023-12-28T13:32:54;1;1;
51052;PMS5003;37093;37.716;-122.060;2023-12-28T13:35:23;1;1;
51052;PMS5003;37093;37.716;-122.060;2023-12-28T13:37:51;1;1;
51052;PMS5003;37093;37.716;-122.060;2023-12-28T13:40:20;2;2;
51052;PMS5003;37093;37.716;-122.060;2023-12-28T13:42:48;2;1;
51052;PMS5003;37093;37.716;-122.060;2023-12-28T13:45:17;2;2;
51052;PMS5003;37093;37.716;-122.060;2023-12-28T13:47:45;3;1;
51052;PMS5003;37093;37.716;-122.060;2023-12-28T13:50:13;2;2;
51052;PMS5003;37093;37.716;-122.060;2023-12-28T13:52:41;1;1;
51052;PMS5003;37093;37.716;-122.060;2023-12-28T13:55:09;12;3;
51052;PMS5003;37093;37.716;-122.060;2023-12-28T13:57:37;2;1;
51052;PMS5003;37093;37.716;-122.060;2023-12-28T14:00:06;0;0;
51052;PMS5003;37093;37.716;-122.060;2023-12-28T14:02:35;1;1;
51052;PMS5003;37093;37.716;-122.060;2023-12-28T14:05:04;1;1;
51052;PMS5003;37093;37.716;-122.060;2023-12-28T14:07:32;1;1;
51052;PMS5003;37093;37.716;-122.060;2023-12-28T14:10:01;2;1;
51052;PMS5003;37093;37.716;-122.060;2023-12-28T14:12:30;1;1;
51052;PMS5003;37093;37.716;-122.060;2023-12-28T14:14:59;1;1;
51052;PMS5003;37093;37.716;-122.060;2023-12-28T14:17:27;1;1;
51052;PMS5003;37093;37.716;-122.060;2023-12-28T14:19:56;1;1;
51052;PMS5003;37093;37.716;-122.060;2023-12-28T14:22:24;1;1;
51052;PMS5003;37093;37.716;-122.060;2023-12-28T14:24:53;2;1;
51052;PMS5003;37093;37.716;-122.060;2023-12-28T14:27:21;1;1;
51052;PMS5003;37093;37.716;-122.060;2023-12-28T14:29:50;2;2;
51052;PMS5003;37093;37.716;-122.060;2023-12-28T14:32:18;0;0;
51052;PMS5003;37093;37.716;-122.060;2023-12-28T14:34:47;1;1;
51052;PMS5003;37093;37.716;-122.060;2023-12-28T14:37:15;0;0;
51052;PMS5003;37093;37.716;-122.060;2023-12-28T14:39:44;0;0;
51052;PMS5003;37093;37.716;-122.060;2023-12-28T14:42:12;0;0;
51052;PMS5003;37093;37.716;-122.060;2023-12-28T14:44:41;2;2;
51052;PMS5003;37093;37.716;-122.060;2023-12-28T14:47:09;0;0;
51052;PMS5003;37093;37.716;-122.060;2023-12-28T14:49:38;1;1;
51052;PMS5003;37093;37.716;-122.060;2023-12-28T14:52:06;0;0;
51052;PMS5003;37093;37.716;-122.060;2023-12-28T14:54:35;0;0;
51052;PMS5003;37093;37.716;-122.060;2023-12-28T14:57:04;2;1;
51052;PMS5003;37093;37.716;-122.060;2023-12-28T14:59:32;0;0;
51052;PMS5003;37093;37.716;-122.060;2023-12-28T15:02:00;0;0;
51052;PMS5003;37093;37.716;-122.060;2023-12-28T15:04:29;0;0;
51052;PMS5003;37093;37.716;-122.060;2023-12-28T15:06:58;3;1;
51052;PMS5003;37093;37.716;-122.060;2023-12-28T15:09:26;1;1;
51052;PMS5003;37093;37.716;-122.060;2023-12-28T15:11:55;0;0;
51052;PMS5003;37093;37.716;-122.060;2023-12-28T15:14:24;1;1;
51052;PMS5003;37093;37.716;-122.060;2023-12-28T15:16:53;1;1;
51052;PMS5003;37093;37.716;-122.060;2023-12-28T15:19:21;1;1;
51052;PMS5003;37093;37.716;-122.060;2023-12-28T15:21:50;1;1;
51052;PMS5003;37093;37.716;-122.060;2023-12-28T15:24:18;1;1;
51052;PMS5003;37093;37.716;-122.060;2023-12-28T15:26:47;1;1;
51052;PMS5003;37093;37.716;-122.060;2023-12-28T15:29:16;1;1;
51052;PMS5003;37093;37.716;-122.060;2023-12-28T15:31:44;1;1;
51052;PMS5003;37093;37.716;-122.060;2023-12-28T15:34:13;0;0;
51052;PMS5003;37093;37.716;-122.060;2023-12-28T15:36:42;0;0;
51052;PMS5003;37093;37.716;-122.060;2023-12-28T15:39:10;1;1;
51052;PMS5003;37093;37.716;-122.060;2023-12-28T15:41:39;1;1;
51052;PMS5003;37093;37.716;-122.060;2023-12-28T15:44:07;0;0;
51052;PMS5003;37093;37.716;-122.060;2023-12-28T15:46:36;1;1;
51052;PMS5003;37093;37.716;-122.060;2023-12-28T15:49:04;0;0;
51052;PMS5003;37093;37.716;-122.060;2023-12-28T15:51:33;0;0;
51052;PMS5003;37093;37.716;-122.060;2023-12-28T15:54:01;0;0;
51052;PMS5003;37093;37.716;-122.060;2023-12-28T15:56:30;1;0;
51052;PMS5003;37093;37.716;-122.060;2023-12-28T15:58:58;0;0;
51052;PMS5003;37093;37.716;-122.060;2023-12-28T16:01:27;0;0;
51052;PMS5003;37093;37.716;-122.060;2023-12-28T16:03:55;0;0;
51052;PMS5003;37093;37.716;-122.060;2023-12-28T16:06:23;0;0;
51052;PMS5003;37093;37.716;-122.060;2023-12-28T16:08:52;2;0;
51052;PMS5003;37093;37.716;-122.060;2023-12-28T16:11:20;1;0;
51052;PMS5003;37093;37.716;-122.060;2023-12-28T16:13:49;2;0;
51052;PMS5003;37093;37.716;-122.060;2023-12-28T16:16:19;1;0;
51052;PMS5003;37093;37.716;-122.060;2023-12-28T16:18:48;1;0;
51052;PMS5003;37093;37.716;-122.060;2023-12-28T16:21:16;0;0;
51052;PMS5003;37093;37.716;-122.060;2023-12-28T16:23:45;1;1;
51052;PMS5003;37093;37.716;-122.060;2023-12-28T16:26:13;1;0;
51052;PMS5003;37093;37.716;-122.060;2023-12-28T16:28:42;1;1;
51052;PMS5003;37093;37.716;-122.060;2023-12-28T16:31:10;1;1;
51052;PMS5003;37093;37.716;-122.060;2023-12-28T16:33:39;1;1;
51052;PMS5003;37093;37.716;-122.060;2023-12-28T16:36:07;0;0;
51052;PMS5003;37093;37.716;-122.060;2023-12-28T16:38:36;0;0;
51052;PMS5003;37093;37.716;-122.060;2023-12-28T16:41:04;5;2;
51052;PMS5003;37093;37.716;-122.060;2023-12-28T16:43:33;1;1;
51052;PMS5003;37093;37.716;-122.060;2023-12-28T16:46:01;2;1;
51052;PMS5003;37093;37.716;-122.060;2023-12-28T16:48:30;3;3;
51052;PMS5003;37093;37.716;-122.060;2023-12-28T16:50:59;1;1;
51052;PMS5003;37093;37.716;-122.060;2023-12-28T16:53:27;3;2;
51052;PMS5003;37093;37.716;-122.060;2023-12-28T16:55:56;0;0;
51052;PMS5003;37093;37.716;-122.060;2023-12-28T16:58:24;3;1;
51052;PMS5003;37093;37.716;-122.060;2023-12-28T17:00:53;3;2;
51052;PMS5003;37093;37.716;-122.060;2023-12-28T17:03:22;2;2;
51052;PMS5003;37093;37.716;-122.060;2023-12-28T17:05:50;1;1;
51052;PMS5003;37093;37.716;-122.060;2023-12-28T17:08:18;1;1;
51052;PMS5003;37093;37.716;-122.060;2023-12-28T17:10:47;0;0;
51052;PMS5003;37093;37.716;-122.060;2023-12-28T17:13:16;1;1;
51052;PMS5003;37093;37.716;-122.060;2023-12-28T17:15:45;0;0;
51052;PMS5003;37093;37.716;-122.060;2023-12-28T17:18:13;1;0;
51052;PMS5003;37093;37.716;-122.060;2023-12-28T17:20:42;1;1;
51052;PMS5003;37093;37.716;-122.060;2023-12-28T17:23:15;0;0;
51052;PMS5003;37093;37.716;-122.060;2023-12-28T17:25:49;1;1;
51052;PMS5003;37093;37.716;-122.060;2023-12-28T17:28:23;2;2;
51052;PMS5003;37093;37.716;-122.060;2023-12-28T17:30:52;0;0;
51052;PMS5003;37093;37.716;-122.060;2023-12-28T17:33:21;1;1;
51052;PMS5003;37093;37.716;-122.060;2023-12-28T17:35:49;1;1;
51052;PMS5003;37093;37.716;-122.060;2023-12-28T17:38:18;0;0;
51052;PMS5003;37093;37.716;-122.060;2023-12-28T17:40:46;0;0;
51052;PMS5003;37093;37.716;-122.060;2023-12-28T17:43:16;0;0;
51052;PMS5003;37093;37.716;-122.060;2023-12-28T17:45:50;1;0;
51052;PMS5003;37093;37.716;-122.060;2023-12-28T17:48:23;2;2;
51052;PMS5003;37093;37.716;-122.060;2023-12-28T17:50:54;1;1;
51052;PMS5003;37093;37.716;-122.060;2023-12-28T17:53:24;5;2;
51052;PMS5003;37093;37.716;-122.060;2023-12-28T17:55:52;3;3;
51052;PMS5003;37093;37.716;-122.060;2023-12-28T17:58:20;1;1;
51052;PMS5003;37093;37.716;-122.060;2023-12-28T18:00:49;3;2;
51052;PMS5003;37093;37.716;-122.060;2023-12-28T18:03:17;5;4;
51052;PMS5003;37093;37.716;-122.060;2023-12-28T18:05:47;1;1;
51052;PMS5003;37093;37.716;-122.060;2023-12-28T18:08:15;1;1;
51052;PMS5003;37093;37.716;-122.060;2023-12-28T18:10:44;3;2;
51052;PMS5003;37093;37.716;-122.060;2023-12-28T18:13:12;1;0;
51052;PMS5003;37093;37.716;-122.060;2023-12-28T18:15:41;2;2;
51052;PMS5003;37093;37.716;-122.060;2023-12-28T18:18:10;3;1;
51052;PMS5003;37093;37.716;-122.060;2023-12-28T18:20:38;2;2;
51052;PMS5003;37093;37.716;-122.060;2023-12-28T18:23:06;5;1;
51052;PMS5003;37093;37.716;-122.060;2023-12-28T18:25:35;1;1;
51052;PMS5003;37093;37.716;-122.060;2023-12-28T18:28:03;4;1;
51052;PMS5003;37093;37.716;-122.060;2023-12-28T18:30:32;2;0;
51052;PMS5003;37093;37.716;-122.060;2023-12-28T18:33:00;1;1;
51052;PMS5003;37093;37.716;-122.060;2023-12-28T18:35:29;2;2;
51052;PMS5003;37093;37.716;-122.060;2023-12-28T18:37:57;0;0;
51052;PMS5003;37093;37.716;-122.060;2023-12-28T18:40:26;3;3;
51052;PMS5003;37093;37.716;-122.060;2023-12-28T18:42:54;1;1;
51052;PMS5003;37093;37.716;-122.060;2023-12-28T18:45:23;1;1;
51052;PMS5003;37093;37.716;-122.060;2023-12-28T18:47:51;0;0;
51052;PMS5003;37093;37.716;-122.060;2023-12-28T18:50:19;0;0;
51052;PMS5003;37093;37.716;-122.060;2023-12-28T18:52:48;2;0;
51052;PMS5003;37093;37.716;-122.060;2023-12-28T18:55:16;0;0;
51052;PMS5003;37093;37.716;-122.060;2023-12-28T18:57:45;0;0;
51052;PMS5003;37093;37.716;-122.060;2023-12-28T19:00:14;0;0;
51052;PMS5003;37093;37.716;-122.060;2023-12-28T19:02:42;2;0;
51052;PMS5003;37093;37.716;-122.060;2023-12-28T19:05:10;0;0;
51052;PMS5003;37093;37.716;-122.060;2023-12-28T19:07:39;2;0;
51052;PMS5003;37093;37.716;-122.060;2023-12-28T19:10:07;0;0;
51052;PMS5003;37093;37.716;-122.060;2023-12-28T19:12:37;0;0;
51052;PMS5003;37093;37.716;-122.060;2023-12-28T19:15:05;0;0;
51052;PMS5003;37093;37.716;-122.060;2023-12-28T19:17:34;0;0;
51052;PMS5003;37093;37.716;-122.060;2023-12-28T19:20:03;0;0;
51052;PMS5003;37093;37.716;-122.060;2023-12-28T19:22:31;0;0;
51052;PMS5003;37093;37.716;-122.060;2023-12-28T19:25:00;0;0;
51052;PMS5003;37093;37.716;-122.060;2023-12-28T19:27:28;3;0;
51052;PMS5003;37093;37.716;-122.060;2023-12-28T19:29:57;1;1;
51052;PMS5003;37093;37.716;-122.060;2023-12-28T19:32:25;0;0;
51052;PMS5003;37093;37.716;-122.060;2023-12-28T19:34:54;0;0;
51052;PMS5003;37093;37.716;-122.060;2023-12-28T19:37:22;0;0;
51052;PMS5003;37093;37.716;-122.060;2023-12-28T19:39:51;0;0;
51052;PMS5003;37093;37.716;-122.060;2023-12-28T19:42:19;0;0;
51052;PMS5003;37093;37.716;-122.060;2023-12-28T19:44:47;1;1;
51052;PMS5003;37093;37.716;-122.060;2023-12-28T19:47:16;0;0;
51052;PMS5003;37093;37.716;-122.060;2023-12-28T19:49:44;0;0;
51052;PMS5003;37093;37.716;-122.060;2023-12-28T19:52:13;0;0;
51052;PMS5003;37093;37.716;-122.060;2023-12-28T19:54:41;0;0;
51052;PMS5003;37093;37.716;-122.060;2023-12-28T19:57:10;0;0;
51052;PMS5003;37093;37.716;-122.060;2023-12-28T19:59:38;3;0;
51052;PMS5003;37093;37.716;-122.060;2023-12-28T20:02:07;1;1;
51052;PMS5003;37093;37.716;-122.060;2023-12-28T20:04:35;1;1;
51052;PMS5003;37093;37.716;-122.060;2023-12-28T20:07:04;0;0;
51052;PMS5003;37093;37.716;-122.060;2023-12-28T20:09:32;0;0;
51052;PMS5003;37093;37.716;-122.060;2023-12-28T20:12:00;1;1;
51052;PMS5003;37093;37.716;-122.060;2023-12-28T20:14:29;1;1;
51052;PMS5003;37093;37.716;-122.060;2023-12-28T20:16:57;0;0;
51052;PMS5003;37093;37.716;-122.060;2023-12-28T20:19:26;0;0;
51052;PMS5003;37093;37.716;-122.060;2023-12-28T20:21:54;1;1;
51052;PMS5003;37093;37.716;-122.060;2023-12-28T20:24:23;1;1;
51052;PMS5003;37093;37.716;-122.060;2023-12-28T20:26:51;0;0;
51052;PMS5003;37093;37.716;-122.060;2023-12-28T20:29:19;1;0;
51052;PMS5003;37093;37.716;-122.060;2023-12-28T20:31:48;0;0;
51052;PMS5003;37093;37.716;-122.060;2023-12-28T20:34:16;1;1;
51052;PMS5003;37093;37.716;-122.060;2023-12-28T20:36:45;0;0;
51052;PMS5003;37093;37.716;-122.060;2023-12-28T20:39:13;0;0;
51052;PMS5003;37093;37.716;-122.060;2023-12-28T20:41:42;0;0;
51052;PMS5003;37093;37.716;-122.060;2023-12-28T20:44:10;1;1;
51052;PMS5003;37093;37.716;-122.060;2023-12-28T20:46:40;0;0;
51052;PMS5003;37093;37.716;-122.060;2023-12-28T20:49:08;0;0;
51052;PMS5003;37093;37.716;-122.060;2023-12-28T20:51:36;2;1;
51052;PMS5003;37093;37.716;-122.060;2023-12-28T20:54:05;3;0;
51052;PMS5003;37093;37.716;-122.060;2023-12-28T20:56:33;1;1;
51052;PMS5003;37093;37.716;-122.060;2023-12-28T20:59:02;3;0;
51052;PMS5003;37093;37.716;-122.060;2023-12-28T21:01:30;0;0;
51052;PMS5003;37093;37.716;-122.060;2023-12-28T21:04:00;0;0;
51052;PMS5003;37093;37.716;-122.060;2023-12-28T21:06:28;0;0;
51052;PMS5003;37093;37.716;-122.060;2023-12-28T21:08:56;2;0;
51052;PMS5003;37093;37.716;-122.060;2023-12-28T21:11:25;1;0;
51052;PMS5003;37093;37.716;-122.060;2023-12-28T21:13:53;0;0;
51052;PMS5003;37093;37.716;-122.060;2023-12-28T21:16:22;0;0;
51052;PMS5003;37093;37.716;-122.060;2023-12-28T21:18:50;0;0;
51052;PMS5003;37093;37.716;-122.060;2023-12-28T21:21:18;0;0;
51052;PMS5003;37093;37.716;-122.060;2023-12-28T21:23:47;0;0;
51052;PMS5003;37093;37.716;-122.060;2023-12-28T21:26:15;0;0;
51052;PMS5003;37093;37.716;-122.060;2023-12-28T21:28:44;0;0;
51052;PMS5003;37093;37.716;-122.060;2023-12-28T21:31:12;1;1;
51052;PMS5003;37093;37.716;-122.060;2023-12-28T21:33:41;0;0;
51052;PMS5003;37093;37.716;-122.060;2023-12-28T21:36:09;0;0;
51052;PMS5003;37093;37.716;-122.060;2023-12-28T21:38:38;0;0;
51052;PMS5003;37093;37.716;-122.060;2023-12-28T21:41:06;0;0;
51052;PMS5003;37093;37.716;-122.060;2023-12-28T21:43:34;0;0;
51052;PMS5003;37093;37.716;-122.060;2023-12-28T21:46:03;0;0;
51052;PMS5003;37093;37.716;-122.060;2023-12-28T21:48:31;0;0;
51052;PMS5003;37093;37.716;-122.060;2023-12-28T21:51:00;0;0;
51052;PMS5003;37093;37.716;-122.060;2023-12-28T21:53:28;0;0;
51052;PMS5003;37093;37.716;-122.060;2023-12-28T21:55:57;1;0;
51052;PMS5003;37093;37.716;-122.060;2023-12-28T21:58:25;0;0;
51052;PMS5003;37093;37.716;-122.060;2023-12-28T22:00:58;0;0;
51052;PMS5003;37093;37.716;-122.060;2023-12-28T22:03:26;0;0;
51052;PMS5003;37093;37.716;-122.060;2023-12-28T22:05:55;0;0;
51052;PMS5003;37093;37.716;-122.060;2023-12-28T22:08:23;1;0;
51052;PMS5003;37093;37.716;-122.060;2023-12-28T22:10:52;0;0;
51052;PMS5003;37093;37.716;-122.060;2023-12-28T22:13:20;0;0;
51052;PMS5003;37093;37.716;-122.060;2023-12-28T22:15:54;1;0;
51052;PMS5003;37093;37.716;-122.060;2023-12-28T22:18:23;0;0;
51052;PMS5003;37093;37.716;-122.060;2023-12-28T22:20:52;0;0;
51052;PMS5003;37093;37.716;-122.060;2023-12-28T22:23:21;0;0;
51052;PMS5003;37093;37.716;-122.060;2023-12-28T22:25:50;0;0;
51052;PMS5003;37093;37.716;-122.060;2023-12-28T22:28:18;0;0;
51052;PMS5003;37093;37.716;-122.060;2023-12-28T22:30:47;0;0;
51052;PMS5003;37093;37.716;-122.060;2023-12-28T22:33:15;3;2;
51052;PMS5003;37093;37.716;-122.060;2023-12-28T22:35:44;0;0;
51052;PMS5003;37093;37.716;-122.060;2023-12-28T22:38:12;2;1;
51052;PMS5003;37093;37.716;-122.060;2023-12-28T22:40:41;0;0;
51052;PMS5003;37093;37.716;-122.060;2023-12-28T22:43:09;0;0;
51052;PMS5003;37093;37.716;-122.060;2023-12-28T22:45:38;0;0;
51052;PMS5003;37093;37.716;-122.060;2023-12-28T22:48:06;0;0;
51052;PMS5003;37093;37.716;-122.060;2023-12-28T22:50:34;0;0;
51052;PMS5003;37093;37.716;-122.060;2023-12-28T22:53:03;0;0;
51052;PMS5003;37093;37.716;-122.060;2023-12-28T22:55:31;0;0;
51052;PMS5003;37093;37.716;-122.060;2023-12-28T22:58:00;0;0;
51052;PMS5003;37093;37.716;-122.060;2023-12-28T23:00:28;0;0;
51052;PMS5003;37093;37.716;-122.060;2023-12-28T23:02:57;0;0;
51052;PMS5003;37093;37.716;-122.060;2023-12-28T23:05:25;0;0;
51052;PMS5003;37093;37.716;-122.060;2023-12-28T23:07:54;0;0;
51052;PMS5003;37093;37.716;-122.060;2023-12-28T23:10:22;0;0;
51052;PMS5003;37093;37.716;-122.060;2023-12-28T23:12:50;3;0;
51052;PMS5003;37093;37.716;-122.060;2023-12-28T23:15:19;1;0;
51052;PMS5003;37093;37.716;-122.060;2023-12-28T23:17:48;0;0;
51052;PMS5003;37093;37.716;-122.060;2023-12-28T23:20:16;1;1;
51052;PMS5003;37093;37.716;-122.060;2023-12-28T23:22:44;0;0;
51052;PMS5003;37093;37.716;-122.060;2023-12-28T23:25:13;0;0;
51052;PMS5003;37093;37.716;-122.060;2023-12-28T23:27:43;0;0;
51052;PMS5003;37093;37.716;-122.060;2023-12-28T23:30:12;0;0;
51052;PMS5003;37093;37.716;-122.060;2023-12-28T23:32:42;1;0;
51052;PMS5003;37093;37.716;-122.060;2023-12-28T23:35:10;0;0;
51052;PMS5003;37093;37.716;-122.060;2023-12-28T23:37:38;0;0;
51052;PMS5003;37093;37.716;-122.060;2023-12-28T23:40:07;0;0;
51052;PMS5003;37093;37.716;-122.060;2023-12-28T23:42:35;0;0;
51052;PMS5003;37093;37.716;-122.060;2023-12-28T23:45:04;0;0;
51052;PMS5003;37093;37.716;-122.060;2023-12-28T23:47:33;0;0;
51052;PMS5003;37093;37.716;-122.060;2023-12-28T23:50:02;0;0;
51052;PMS5003;37093;37.716;-122.060;2023-12-28T23:52:30;0;0;
51052;PMS5003;37093;37.716;-122.060;2023-12-28T23:54:59;1;0;
51052;PMS5003;37093;37.716;-122.060;2023-12-28T23:57:27;1;1;
51052;PMS5003;37093;37.716;-122.060;2023-12-28T23:59:55;3;0;
